sensor_id;sensor_type;location;lat;lon;timestamp;P1;durP1;ratioP1;P2;durP2;ratioP2
54360;SDS011;40258;53.936;27.540;2022-10-31T00:01:33;3.97;;;1.15;;
54360;SDS011;40258;53.936;27.540;2022-10-31T00:04:04;4.80;;;1.08;;
54360;SDS011;40258;53.936;27.540;2022-10-31T00:06:35;3.58;;;1.00;;
54360;SDS011;40258;53.936;27.540;2022-10-31T00:09:03;3.55;;;1.08;;
54360;SDS011;40258;53.936;27.540;2022-10-31T00:11:32;2.55;;;1.20;;
54360;SDS011;40258;53.936;27.540;2022-10-31T00:14:01;4.78;;;1.75;;
54360;SDS011;40258;53.936;27.540;2022-10-31T00:16:30;3.22;;;1.08;;
54360;SDS011;40258;53.936;27.540;2022-10-31T00:18:59;4.38;;;1.30;;
54360;SDS011;40258;53.936;27.540;2022-10-31T00:21:30;3.40;;;1.23;;
54360;SDS011;40258;53.936;27.540;2022-10-31T00:24:02;3.95;;;1.10;;
54360;SDS011;40258;53.936;27.540;2022-10-31T00:26:31;3.22;;;1.02;;
54360;SDS011;40258;53.936;27.540;2022-10-31T00:29:00;2.88;;;1.30;;
54360;SDS011;40258;53.936;27.540;2022-10-31T00:31:29;2.90;;;1.48;;
54360;SDS011;40258;53.936;27.540;2022-10-31T00:33:58;2.47;;;1.10;;
54360;SDS011;40258;53.936;27.540;2022-10-31T00:36:29;2.35;;;1.20;;
54360;SDS011;40258;53.936;27.540;2022-10-31T00:38:57;2.75;;;1.20;;
54360;SDS011;40258;53.936;27.540;2022-10-31T00:41:28;8.55;;;1.70;;
54360;SDS011;40258;53.936;27.540;2022-10-31T00:43:57;3.63;;;1.05;;
54360;SDS011;40258;53.936;27.540;2022-10-31T00:46:26;2.67;;;1.17;;
54360;SDS011;40258;53.936;27.540;2022-10-31T00:48:54;2.35;;;1.00;;
54360;SDS011;40258;53.936;27.540;2022-10-31T00:51:23;2.75;;;1.10;;
54360;SDS011;40258;53.936;27.540;2022-10-31T00:53:51;2.30;;;0.90;;
54360;SDS011;40258;53.936;27.540;2022-10-31T00:56:19;3.53;;;1.25;;
54360;SDS011;40258;53.936;27.540;2022-10-31T00:58:49;3.92;;;1.15;;
54360;SDS011;40258;53.936;27.540;2022-10-31T01:01:19;5.53;;;1.30;;
54360;SDS011;40258;53.936;27.540;2022-10-31T01:03:49;5.40;;;1.20;;
54360;SDS011;40258;53.936;27.540;2022-10-31T01:06:18;4.22;;;1.48;;
54360;SDS011;40258;53.936;27.540;2022-10-31T01:08:46;2.95;;;1.25;;
54360;SDS011;40258;53.936;27.540;2022-10-31T01:11:16;4.18;;;1.40;;
54360;SDS011;40258;53.936;27.540;2022-10-31T01:13:49;3.67;;;1.10;;
54360;SDS011;40258;53.936;27.540;2022-10-31T01:16:21;3.75;;;1.58;;
54360;SDS011;40258;53.936;27.540;2022-10-31T01:18:51;2.80;;;1.25;;
54360;SDS011;40258;53.936;27.540;2022-10-31T01:21:21;3.65;;;1.38;;
54360;SDS011;40258;53.936;27.540;2022-10-31T01:23:51;4.28;;;1.27;;
54360;SDS011;40258;53.936;27.540;2022-10-31T01:26:22;3.47;;;1.42;;
54360;SDS011;40258;53.936;27.540;2022-10-31T01:28:55;2.85;;;1.20;;
54360;SDS011;40258;53.936;27.540;2022-10-31T01:31:26;2.88;;;1.20;;
54360;SDS011;40258;53.936;27.540;2022-10-31T01:33:58;3.92;;;1.30;;
54360;SDS011;40258;53.936;27.540;2022-10-31T01:36:27;3.70;;;1.15;;
54360;SDS011;40258;53.936;27.540;2022-10-31T01:38:58;5.15;;;1.52;;
54360;SDS011;40258;53.936;27.540;2022-10-31T01:41:30;5.05;;;1.75;;
54360;SDS011;40258;53.936;27.540;2022-10-31T01:47:22;4.22;;;1.10;;
54360;SDS011;40258;53.936;27.540;2022-10-31T01:50:12;3.65;;;1.30;;
54360;SDS011;40258;53.936;27.540;2022-10-31T01:52:53;5.13;;;1.50;;
54360;SDS011;40258;53.936;27.540;2022-10-31T01:55:23;6.07;;;1.40;;
54360;SDS011;40258;53.936;27.540;2022-10-31T01:57:57;3.60;;;1.20;;
54360;SDS011;40258;53.936;27.540;2022-10-31T02:00:30;1.98;;;1.08;;
54360;SDS011;40258;53.936;27.540;2022-10-31T02:02:59;5.03;;;1.20;;
54360;SDS011;40258;53.936;27.540;2022-10-31T02:05:28;2.92;;;1.30;;
54360;SDS011;40258;53.936;27.540;2022-10-31T02:08:00;3.30;;;1.20;;
54360;SDS011;40258;53.936;27.540;2022-10-31T02:10:35;4.85;;;1.23;;
54360;SDS011;40258;53.936;27.540;2022-10-31T02:13:05;6.40;;;1.35;;
54360;SDS011;40258;53.936;27.540;2022-10-31T02:15:44;2.35;;;1.15;;
54360;SDS011;40258;53.936;27.540;2022-10-31T02:18:16;4.82;;;1.40;;
54360;SDS011;40258;53.936;27.540;2022-10-31T02:20:48;3.53;;;1.55;;
54360;SDS011;40258;53.936;27.540;2022-10-31T02:23:45;5.07;;;1.45;;
54360;SDS011;40258;53.936;27.540;2022-10-31T02:27:02;3.78;;;1.50;;
54360;SDS011;40258;53.936;27.540;2022-10-31T02:30:02;3.88;;;1.23;;
54360;SDS011;40258;53.936;27.540;2022-10-31T02:35:52;2.42;;;1.20;;
54360;SDS011;40258;53.936;27.540;2022-10-31T02:38:35;4.15;;;1.60;;
54360;SDS011;40258;53.936;27.540;2022-10-31T02:41:32;4.03;;;1.33;;
54360;SDS011;40258;53.936;27.540;2022-10-31T02:44:13;5.63;;;1.67;;
54360;SDS011;40258;53.936;27.540;2022-10-31T02:46:49;2.47;;;1.42;;
54360;SDS011;40258;53.936;27.540;2022-10-31T02:49:24;6.45;;;1.98;;
54360;SDS011;40258;53.936;27.540;2022-10-31T02:52:00;4.75;;;1.65;;
54360;SDS011;40258;53.936;27.540;2022-10-31T02:54:29;5.78;;;1.58;;
54360;SDS011;40258;53.936;27.540;2022-10-31T02:57:00;10.00;;;1.80;;
54360;SDS011;40258;53.936;27.540;2022-10-31T02:59:34;6.82;;;1.90;;
54360;SDS011;40258;53.936;27.540;2022-10-31T03:02:19;5.60;;;1.60;;
54360;SDS011;40258;53.936;27.540;2022-10-31T03:08:01;5.80;;;1.75;;
54360;SDS011;40258;53.936;27.540;2022-10-31T03:10:39;3.90;;;1.70;;
54360;SDS011;40258;53.936;27.540;2022-10-31T03:13:17;5.38;;;1.63;;
54360;SDS011;40258;53.936;27.540;2022-10-31T03:15:57;4.97;;;1.88;;
54360;SDS011;40258;53.936;27.540;2022-10-31T03:18:37;5.82;;;1.65;;
54360;SDS011;40258;53.936;27.540;2022-10-31T03:21:12;5.53;;;1.95;;
54360;SDS011;40258;53.936;27.540;2022-10-31T03:23:46;3.47;;;1.85;;
54360;SDS011;40258;53.936;27.540;2022-10-31T03:26:20;8.55;;;2.17;;
54360;SDS011;40258;53.936;27.540;2022-10-31T03:28:53;5.47;;;2.00;;
54360;SDS011;40258;53.936;27.540;2022-10-31T03:31:25;5.82;;;1.75;;
54360;SDS011;40258;53.936;27.540;2022-10-31T03:33:58;5.72;;;1.98;;
54360;SDS011;40258;53.936;27.540;2022-10-31T03:36:31;5.35;;;1.60;;
54360;SDS011;40258;53.936;27.540;2022-10-31T03:39:03;4.80;;;2.05;;
54360;SDS011;40258;53.936;27.540;2022-10-31T03:41:40;6.65;;;2.08;;
54360;SDS011;40258;53.936;27.540;2022-10-31T03:44:14;5.23;;;2.10;;
54360;SDS011;40258;53.936;27.540;2022-10-31T03:46:54;7.20;;;2.83;;
54360;SDS011;40258;53.936;27.540;2022-10-31T03:49:22;6.15;;;2.60;;
54360;SDS011;40258;53.936;27.540;2022-10-31T03:51:54;8.35;;;2.47;;
54360;SDS011;40258;53.936;27.540;2022-10-31T03:54:29;8.05;;;2.70;;
54360;SDS011;40258;53.936;27.540;2022-10-31T03:57:06;4.95;;;2.05;;
54360;SDS011;40258;53.936;27.540;2022-10-31T03:59:44;4.63;;;2.30;;
54360;SDS011;40258;53.936;27.540;2022-10-31T04:02:18;7.13;;;2.65;;
54360;SDS011;40258;53.936;27.540;2022-10-31T04:04:50;7.43;;;2.17;;
54360;SDS011;40258;53.936;27.540;2022-10-31T04:07:20;6.28;;;2.58;;
54360;SDS011;40258;53.936;27.540;2022-10-31T04:09:53;6.22;;;2.40;;
54360;SDS011;40258;53.936;27.540;2022-10-31T04:12:23;7.32;;;2.65;;
54360;SDS011;40258;53.936;27.540;2022-10-31T04:15:22;6.40;;;3.25;;
54360;SDS011;40258;53.936;27.540;2022-10-31T04:17:54;9.65;;;3.38;;
54360;SDS011;40258;53.936;27.540;2022-10-31T04:20:29;6.07;;;3.15;;
54360;SDS011;40258;53.936;27.540;2022-10-31T04:23:01;10.13;;;3.20;;
54360;SDS011;40258;53.936;27.540;2022-10-31T04:25:31;7.93;;;4.10;;
54360;SDS011;40258;53.936;27.540;2022-10-31T04:28:00;8.48;;;4.80;;
54360;SDS011;40258;53.936;27.540;2022-10-31T04:30:29;7.22;;;3.30;;
54360;SDS011;40258;53.936;27.540;2022-10-31T04:32:58;7.82;;;3.15;;
54360;SDS011;40258;53.936;27.540;2022-10-31T04:35:27;7.60;;;2.50;;
54360;SDS011;40258;53.936;27.540;2022-10-31T04:37:56;7.50;;;2.28;;
54360;SDS011;40258;53.936;27.540;2022-10-31T04:40:26;9.85;;;2.45;;
54360;SDS011;40258;53.936;27.540;2022-10-31T04:42:54;8.18;;;2.40;;
54360;SDS011;40258;53.936;27.540;2022-10-31T04:45:23;8.65;;;2.25;;
54360;SDS011;40258;53.936;27.540;2022-10-31T04:47:53;6.97;;;1.95;;
54360;SDS011;40258;53.936;27.540;2022-10-31T04:50:22;4.68;;;1.95;;
54360;SDS011;40258;53.936;27.540;2022-10-31T04:52:51;7.40;;;2.25;;
54360;SDS011;40258;53.936;27.540;2022-10-31T04:55:26;5.75;;;2.55;;
54360;SDS011;40258;53.936;27.540;2022-10-31T04:58:12;4.53;;;2.25;;
54360;SDS011;40258;53.936;27.540;2022-10-31T05:00:42;6.10;;;2.25;;
54360;SDS011;40258;53.936;27.540;2022-10-31T05:03:11;5.45;;;2.05;;
54360;SDS011;40258;53.936;27.540;2022-10-31T05:05:41;7.30;;;2.88;;
54360;SDS011;40258;53.936;27.540;2022-10-31T05:08:09;5.47;;;2.22;;
54360;SDS011;40258;53.936;27.540;2022-10-31T05:10:39;7.45;;;2.10;;
54360;SDS011;40258;53.936;27.540;2022-10-31T05:13:08;7.07;;;2.60;;
54360;SDS011;40258;53.936;27.540;2022-10-31T05:16:09;9.40;;;3.40;;
54360;SDS011;40258;53.936;27.540;2022-10-31T05:19:10;8.63;;;4.07;;
54360;SDS011;40258;53.936;27.540;2022-10-31T05:22:04;6.53;;;2.88;;
54360;SDS011;40258;53.936;27.540;2022-10-31T05:24:33;9.27;;;2.55;;
54360;SDS011;40258;53.936;27.540;2022-10-31T05:27:03;10.27;;;3.42;;
54360;SDS011;40258;53.936;27.540;2022-10-31T05:29:32;6.00;;;3.13;;
54360;SDS011;40258;53.936;27.540;2022-10-31T05:32:01;4.60;;;2.63;;
54360;SDS011;40258;53.936;27.540;2022-10-31T05:35:06;8.07;;;3.00;;
54360;SDS011;40258;53.936;27.540;2022-10-31T05:37:54;7.45;;;3.17;;
54360;SDS011;40258;53.936;27.540;2022-10-31T05:40:24;7.15;;;2.78;;
54360;SDS011;40258;53.936;27.540;2022-10-31T05:42:55;7.75;;;4.18;;
54360;SDS011;40258;53.936;27.540;2022-10-31T05:45:25;13.00;;;4.65;;
54360;SDS011;40258;53.936;27.540;2022-10-31T05:48:00;13.73;;;4.78;;
54360;SDS011;40258;53.936;27.540;2022-10-31T05:50:41;24.15;;;8.77;;
54360;SDS011;40258;53.936;27.540;2022-10-31T05:53:10;13.43;;;5.57;;
54360;SDS011;40258;53.936;27.540;2022-10-31T05:55:40;7.65;;;2.97;;
54360;SDS011;40258;53.936;27.540;2022-10-31T05:58:20;8.13;;;2.92;;
54360;SDS011;40258;53.936;27.540;2022-10-31T06:00:58;6.05;;;3.13;;
54360;SDS011;40258;53.936;27.540;2022-10-31T06:03:27;7.40;;;2.42;;
54360;SDS011;40258;53.936;27.540;2022-10-31T06:05:56;5.75;;;2.35;;
54360;SDS011;40258;53.936;27.540;2022-10-31T06:08:30;4.68;;;2.08;;
54360;SDS011;40258;53.936;27.540;2022-10-31T06:11:03;5.68;;;2.10;;
54360;SDS011;40258;53.936;27.540;2022-10-31T06:16:35;4.93;;;2.15;;
54360;SDS011;40258;53.936;27.540;2022-10-31T06:19:23;5.07;;;2.50;;
54360;SDS011;40258;53.936;27.540;2022-10-31T06:21:54;8.18;;;2.63;;
54360;SDS011;40258;53.936;27.540;2022-10-31T06:25:41;7.75;;;2.63;;
54360;SDS011;40258;53.936;27.540;2022-10-31T06:28:11;1.00;;;0.90;;
54360;SDS011;40258;53.936;27.540;2022-10-31T06:30:54;4.65;;;2.30;;
54360;SDS011;40258;53.936;27.540;2022-10-31T06:33:23;8.77;;;2.45;;
54360;SDS011;40258;53.936;27.540;2022-10-31T06:35:56;5.97;;;2.50;;
54360;SDS011;40258;53.936;27.540;2022-10-31T06:38:26;10.10;;;4.15;;
54360;SDS011;40258;53.936;27.540;2022-10-31T06:40:55;7.00;;;3.33;;
54360;SDS011;40258;53.936;27.540;2022-10-31T06:43:26;5.63;;;2.58;;
54360;SDS011;40258;53.936;27.540;2022-10-31T06:46:20;7.00;;;2.70;;
54360;SDS011;40258;53.936;27.540;2022-10-31T06:49:11;11.02;;;2.63;;
54360;SDS011;40258;53.936;27.540;2022-10-31T06:51:50;6.05;;;2.08;;
54360;SDS011;40258;53.936;27.540;2022-10-31T06:54:18;5.50;;;2.10;;
54360;SDS011;40258;53.936;27.540;2022-10-31T06:56:47;5.70;;;2.17;;
54360;SDS011;40258;53.936;27.540;2022-10-31T06:59:16;4.35;;;2.30;;
54360;SDS011;40258;53.936;27.540;2022-10-31T07:02:19;5.45;;;2.42;;
54360;SDS011;40258;53.936;27.540;2022-10-31T07:04:48;5.53;;;2.30;;
54360;SDS011;40258;53.936;27.540;2022-10-31T07:07:17;5.97;;;2.45;;
54360;SDS011;40258;53.936;27.540;2022-10-31T07:09:48;4.60;;;2.50;;
54360;SDS011;40258;53.936;27.540;2022-10-31T07:12:19;5.03;;;2.10;;
54360;SDS011;40258;53.936;27.540;2022-10-31T07:14:55;6.25;;;2.60;;
54360;SDS011;40258;53.936;27.540;2022-10-31T07:17:25;4.97;;;1.80;;
54360;SDS011;40258;53.936;27.540;2022-10-31T07:19:55;4.57;;;2.13;;
54360;SDS011;40258;53.936;27.540;2022-10-31T07:22:24;4.20;;;1.90;;
54360;SDS011;40258;53.936;27.540;2022-10-31T07:24:59;6.30;;;3.05;;
54360;SDS011;40258;53.936;27.540;2022-10-31T07:27:53;4.32;;;1.65;;
54360;SDS011;40258;53.936;27.540;2022-10-31T07:30:22;6.20;;;2.20;;
54360;SDS011;40258;53.936;27.540;2022-10-31T07:32:56;4.78;;;1.63;;
54360;SDS011;40258;53.936;27.540;2022-10-31T07:35:39;7.85;;;2.00;;
54360;SDS011;40258;53.936;27.540;2022-10-31T07:38:09;6.75;;;2.92;;
54360;SDS011;40258;53.936;27.540;2022-10-31T07:40:39;7.07;;;2.28;;
54360;SDS011;40258;53.936;27.540;2022-10-31T07:43:08;6.85;;;2.30;;
54360;SDS011;40258;53.936;27.540;2022-10-31T07:46:11;6.00;;;2.28;;
54360;SDS011;40258;53.936;27.540;2022-10-31T07:49:00;7.00;;;2.92;;
54360;SDS011;40258;53.936;27.540;2022-10-31T07:51:47;6.75;;;2.30;;
54360;SDS011;40258;53.936;27.540;2022-10-31T07:54:34;7.00;;;2.73;;
54360;SDS011;40258;53.936;27.540;2022-10-31T07:57:02;6.05;;;1.77;;
54360;SDS011;40258;53.936;27.540;2022-10-31T07:59:31;4.70;;;2.10;;
54360;SDS011;40258;53.936;27.540;2022-10-31T08:02:00;8.98;;;2.78;;
54360;SDS011;40258;53.936;27.540;2022-10-31T08:04:30;8.98;;;3.70;;
54360;SDS011;40258;53.936;27.540;2022-10-31T08:07:21;11.20;;;5.47;;
54360;SDS011;40258;53.936;27.540;2022-10-31T08:09:56;7.05;;;2.75;;
54360;SDS011;40258;53.936;27.540;2022-10-31T08:12:28;6.65;;;2.58;;
54360;SDS011;40258;53.936;27.540;2022-10-31T08:14:57;7.18;;;2.35;;
54360;SDS011;40258;53.936;27.540;2022-10-31T08:17:26;7.15;;;3.10;;
54360;SDS011;40258;53.936;27.540;2022-10-31T08:19:59;6.25;;;2.40;;
54360;SDS011;40258;53.936;27.540;2022-10-31T08:22:32;5.55;;;2.08;;
54360;SDS011;40258;53.936;27.540;2022-10-31T08:25:01;6.82;;;2.10;;
54360;SDS011;40258;53.936;27.540;2022-10-31T08:27:30;5.32;;;2.20;;
54360;SDS011;40258;53.936;27.540;2022-10-31T08:30:00;6.35;;;2.40;;
54360;SDS011;40258;53.936;27.540;2022-10-31T08:32:29;4.78;;;1.75;;
54360;SDS011;40258;53.936;27.540;2022-10-31T08:35:18;12.82;;;7.07;;
54360;SDS011;40258;53.936;27.540;2022-10-31T08:38:13;7.50;;;2.53;;
54360;SDS011;40258;53.936;27.540;2022-10-31T08:40:42;8.75;;;3.63;;
54360;SDS011;40258;53.936;27.540;2022-10-31T08:43:12;10.70;;;3.30;;
54360;SDS011;40258;53.936;27.540;2022-10-31T08:45:42;7.70;;;2.63;;
54360;SDS011;40258;53.936;27.540;2022-10-31T08:48:18;7.53;;;4.35;;
54360;SDS011;40258;53.936;27.540;2022-10-31T08:50:48;7.38;;;3.35;;
54360;SDS011;40258;53.936;27.540;2022-10-31T08:53:18;5.78;;;2.50;;
54360;SDS011;40258;53.936;27.540;2022-10-31T08:55:57;4.43;;;2.03;;
54360;SDS011;40258;53.936;27.540;2022-10-31T08:58:26;11.55;;;4.32;;
54360;SDS011;40258;53.936;27.540;2022-10-31T09:01:00;14.55;;;7.65;;
54360;SDS011;40258;53.936;27.540;2022-10-31T09:03:30;9.95;;;3.50;;
54360;SDS011;40258;53.936;27.540;2022-10-31T09:06:01;8.77;;;3.83;;
54360;SDS011;40258;53.936;27.540;2022-10-31T09:08:34;13.52;;;6.10;;
54360;SDS011;40258;53.936;27.540;2022-10-31T09:11:03;7.32;;;3.00;;
54360;SDS011;40258;53.936;27.540;2022-10-31T09:13:56;7.57;;;2.92;;
54360;SDS011;40258;53.936;27.540;2022-10-31T09:16:44;7.32;;;2.67;;
54360;SDS011;40258;53.936;27.540;2022-10-31T09:19:20;4.80;;;1.92;;
54360;SDS011;40258;53.936;27.540;2022-10-31T09:21:52;4.60;;;1.95;;
54360;SDS011;40258;53.936;27.540;2022-10-31T09:24:22;16.40;;;9.02;;
54360;SDS011;40258;53.936;27.540;2022-10-31T09:26:52;9.80;;;3.72;;
54360;SDS011;40258;53.936;27.540;2022-10-31T09:29:26;5.97;;;3.47;;
54360;SDS011;40258;53.936;27.540;2022-10-31T09:31:58;9.13;;;2.40;;
54360;SDS011;40258;53.936;27.540;2022-10-31T09:34:28;5.88;;;1.88;;
54360;SDS011;40258;53.936;27.540;2022-10-31T09:37:07;5.38;;;1.70;;
54360;SDS011;40258;53.936;27.540;2022-10-31T09:39:35;8.50;;;3.83;;
54360;SDS011;40258;53.936;27.540;2022-10-31T09:42:33;6.60;;;2.40;;
54360;SDS011;40258;53.936;27.540;2022-10-31T09:45:25;7.15;;;3.28;;
54360;SDS011;40258;53.936;27.540;2022-10-31T09:51:19;13.40;;;6.10;;
54360;SDS011;40258;53.936;27.540;2022-10-31T09:54:01;7.10;;;2.95;;
54360;SDS011;40258;53.936;27.540;2022-10-31T09:56:36;3.17;;;1.65;;
54360;SDS011;40258;53.936;27.540;2022-10-31T09:59:06;3.70;;;1.50;;
54360;SDS011;40258;53.936;27.540;2022-10-31T10:01:54;5.05;;;1.70;;
54360;SDS011;40258;53.936;27.540;2022-10-31T10:04:34;6.53;;;2.40;;
54360;SDS011;40258;53.936;27.540;2022-10-31T10:07:37;5.90;;;1.92;;
54360;SDS011;40258;53.936;27.540;2022-10-31T10:10:40;5.20;;;2.17;;
54360;SDS011;40258;53.936;27.540;2022-10-31T10:13:39;5.72;;;2.63;;
54360;SDS011;40258;53.936;27.540;2022-10-31T10:16:27;9.02;;;2.50;;
54360;SDS011;40258;53.936;27.540;2022-10-31T10:19:15;3.25;;;1.48;;
54360;SDS011;40258;53.936;27.540;2022-10-31T10:22:22;8.18;;;2.17;;
54360;SDS011;40258;53.936;27.540;2022-10-31T10:25:01;6.32;;;2.67;;
54360;SDS011;40258;53.936;27.540;2022-10-31T10:27:52;4.70;;;1.90;;
54360;SDS011;40258;53.936;27.540;2022-10-31T10:30:33;4.97;;;2.05;;
54360;SDS011;40258;53.936;27.540;2022-10-31T10:33:09;5.07;;;2.25;;
54360;SDS011;40258;53.936;27.540;2022-10-31T10:35:42;6.00;;;2.30;;
54360;SDS011;40258;53.936;27.540;2022-10-31T10:38:16;8.00;;;2.63;;
54360;SDS011;40258;53.936;27.540;2022-10-31T10:40:51;7.35;;;2.83;;
54360;SDS011;40258;53.936;27.540;2022-10-31T10:43:23;6.60;;;2.15;;
54360;SDS011;40258;53.936;27.540;2022-10-31T10:46:01;9.63;;;2.33;;
54360;SDS011;40258;53.936;27.540;2022-10-31T10:49:05;5.82;;;2.45;;
54360;SDS011;40258;53.936;27.540;2022-10-31T10:51:44;6.47;;;2.08;;
54360;SDS011;40258;53.936;27.540;2022-10-31T10:54:22;6.40;;;2.33;;
54360;SDS011;40258;53.936;27.540;2022-10-31T10:57:27;8.52;;;2.40;;
54360;SDS011;40258;53.936;27.540;2022-10-31T11:00:18;8.13;;;2.58;;
54360;SDS011;40258;53.936;27.540;2022-10-31T11:05:22;6.07;;;2.17;;
54360;SDS011;40258;53.936;27.540;2022-10-31T11:07:55;5.78;;;2.08;;
54360;SDS011;40258;53.936;27.540;2022-10-31T11:10:24;6.38;;;2.13;;
54360;SDS011;40258;53.936;27.540;2022-10-31T11:13:14;8.88;;;2.55;;
54360;SDS011;40258;53.936;27.540;2022-10-31T11:15:53;7.22;;;2.05;;
54360;SDS011;40258;53.936;27.540;2022-10-31T11:18:26;5.43;;;2.25;;
54360;SDS011;40258;53.936;27.540;2022-10-31T11:20:58;6.22;;;1.95;;
54360;SDS011;40258;53.936;27.540;2022-10-31T11:23:30;5.57;;;2.15;;
54360;SDS011;40258;53.936;27.540;2022-10-31T11:26:00;5.30;;;1.77;;
54360;SDS011;40258;53.936;27.540;2022-10-31T11:28:32;5.28;;;1.70;;
54360;SDS011;40258;53.936;27.540;2022-10-31T11:31:06;5.47;;;2.00;;
54360;SDS011;40258;53.936;27.540;2022-10-31T11:33:40;4.53;;;1.60;;
54360;SDS011;40258;53.936;27.540;2022-10-31T11:36:15;5.47;;;1.90;;
54360;SDS011;40258;53.936;27.540;2022-10-31T11:38:50;3.97;;;1.58;;
54360;SDS011;40258;53.936;27.540;2022-10-31T11:41:23;7.22;;;2.03;;
54360;SDS011;40258;53.936;27.540;2022-10-31T11:43:56;5.65;;;2.00;;
54360;SDS011;40258;53.936;27.540;2022-10-31T11:46:30;8.35;;;3.33;;
54360;SDS011;40258;53.936;27.540;2022-10-31T11:49:04;4.20;;;2.17;;
54360;SDS011;40258;53.936;27.540;2022-10-31T11:51:40;7.38;;;2.53;;
54360;SDS011;40258;53.936;27.540;2022-10-31T11:54:15;5.50;;;2.00;;
54360;SDS011;40258;53.936;27.540;2022-10-31T11:56:51;5.85;;;2.30;;
54360;SDS011;40258;53.936;27.540;2022-10-31T11:59:26;6.57;;;1.95;;
54360;SDS011;40258;53.936;27.540;2022-10-31T12:04:33;8.90;;;4.25;;
54360;SDS011;40258;53.936;27.540;2022-10-31T12:07:10;5.07;;;2.13;;
54360;SDS011;40258;53.936;27.540;2022-10-31T12:09:38;7.45;;;3.03;;
54360;SDS011;40258;53.936;27.540;2022-10-31T12:15:24;8.02;;;2.90;;
54360;SDS011;40258;53.936;27.540;2022-10-31T12:18:11;4.82;;;2.17;;
54360;SDS011;40258;53.936;27.540;2022-10-31T12:21:13;6.35;;;2.00;;
54360;SDS011;40258;53.936;27.540;2022-10-31T12:23:56;5.60;;;2.33;;
54360;SDS011;40258;53.936;27.540;2022-10-31T12:26:41;5.88;;;2.20;;
54360;SDS011;40258;53.936;27.540;2022-10-31T12:32:20;4.85;;;1.95;;
54360;SDS011;40258;53.936;27.540;2022-10-31T12:35:25;3.75;;;1.88;;
54360;SDS011;40258;53.936;27.540;2022-10-31T12:41:27;6.35;;;2.42;;
54360;SDS011;40258;53.936;27.540;2022-10-31T12:44:12;6.22;;;2.17;;
54360;SDS011;40258;53.936;27.540;2022-10-31T12:47:16;9.85;;;2.53;;
54360;SDS011;40258;53.936;27.540;2022-10-31T12:50:11;7.55;;;2.97;;
54360;SDS011;40258;53.936;27.540;2022-10-31T12:52:54;5.80;;;2.40;;
54360;SDS011;40258;53.936;27.540;2022-10-31T12:55:41;6.15;;;1.83;;
54360;SDS011;40258;53.936;27.540;2022-10-31T12:58:21;4.90;;;2.05;;
54360;SDS011;40258;53.936;27.540;2022-10-31T13:00:57;8.52;;;3.40;;
54360;SDS011;40258;53.936;27.540;2022-10-31T13:03:38;6.95;;;2.45;;
54360;SDS011;40258;53.936;27.540;2022-10-31T13:06:16;6.63;;;2.65;;
54360;SDS011;40258;53.936;27.540;2022-10-31T13:08:51;9.07;;;3.97;;
54360;SDS011;40258;53.936;27.540;2022-10-31T13:11:27;8.77;;;3.35;;
54360;SDS011;40258;53.936;27.540;2022-10-31T13:14:01;9.77;;;3.65;;
54360;SDS011;40258;53.936;27.540;2022-10-31T13:16:37;6.35;;;2.83;;
54360;SDS011;40258;53.936;27.540;2022-10-31T13:19:13;5.63;;;2.65;;
54360;SDS011;40258;53.936;27.540;2022-10-31T13:21:49;8.63;;;3.10;;
54360;SDS011;40258;53.936;27.540;2022-10-31T13:24:36;8.20;;;3.70;;
54360;SDS011;40258;53.936;27.540;2022-10-31T13:27:13;12.00;;;3.50;;
54360;SDS011;40258;53.936;27.540;2022-10-31T13:29:52;9.23;;;3.38;;
54360;SDS011;40258;53.936;27.540;2022-10-31T13:32:29;8.52;;;3.28;;
54360;SDS011;40258;53.936;27.540;2022-10-31T13:35:10;10.15;;;3.72;;
54360;SDS011;40258;53.936;27.540;2022-10-31T13:37:47;7.78;;;3.00;;
54360;SDS011;40258;53.936;27.540;2022-10-31T13:40:27;6.13;;;2.60;;
54360;SDS011;40258;53.936;27.540;2022-10-31T13:43:08;11.38;;;4.32;;
54360;SDS011;40258;53.936;27.540;2022-10-31T13:46:00;7.82;;;2.75;;
54360;SDS011;40258;53.936;27.540;2022-10-31T13:48:33;9.88;;;4.97;;
54360;SDS011;40258;53.936;27.540;2022-10-31T13:51:08;7.07;;;2.40;;
54360;SDS011;40258;53.936;27.540;2022-10-31T13:53:39;6.43;;;2.40;;
54360;SDS011;40258;53.936;27.540;2022-10-31T13:56:20;8.10;;;2.47;;
54360;SDS011;40258;53.936;27.540;2022-10-31T13:58:56;9.48;;;2.63;;
54360;SDS011;40258;53.936;27.540;2022-10-31T14:01:46;7.20;;;3.28;;
54360;SDS011;40258;53.936;27.540;2022-10-31T14:04:18;10.05;;;3.00;;
54360;SDS011;40258;53.936;27.540;2022-10-31T14:06:52;9.23;;;2.60;;
54360;SDS011;40258;53.936;27.540;2022-10-31T14:09:29;7.38;;;2.80;;
54360;SDS011;40258;53.936;27.540;2022-10-31T14:12:03;6.72;;;2.80;;
54360;SDS011;40258;53.936;27.540;2022-10-31T14:14:40;9.05;;;4.20;;
54360;SDS011;40258;53.936;27.540;2022-10-31T14:17:21;12.90;;;4.80;;
54360;SDS011;40258;53.936;27.540;2022-10-31T14:19:56;5.82;;;2.85;;
54360;SDS011;40258;53.936;27.540;2022-10-31T14:22:47;8.57;;;2.75;;
54360;SDS011;40258;53.936;27.540;2022-10-31T14:25:26;6.97;;;2.85;;
54360;SDS011;40258;53.936;27.540;2022-10-31T14:28:01;6.90;;;2.50;;
54360;SDS011;40258;53.936;27.540;2022-10-31T14:30:51;6.60;;;2.53;;
54360;SDS011;40258;53.936;27.540;2022-10-31T14:33:20;7.80;;;3.67;;
54360;SDS011;40258;53.936;27.540;2022-10-31T14:35:54;10.75;;;3.60;;
54360;SDS011;40258;53.936;27.540;2022-10-31T14:38:34;8.40;;;4.47;;
54360;SDS011;40258;53.936;27.540;2022-10-31T14:41:21;11.80;;;5.35;;
54360;SDS011;40258;53.936;27.540;2022-10-31T14:47:31;8.98;;;4.00;;
54360;SDS011;40258;53.936;27.540;2022-10-31T14:53:10;6.95;;;3.65;;
54360;SDS011;40258;53.936;27.540;2022-10-31T14:55:47;7.32;;;3.53;;
54360;SDS011;40258;53.936;27.540;2022-10-31T14:58:19;12.85;;;4.70;;
54360;SDS011;40258;53.936;27.540;2022-10-31T15:00:53;9.00;;;3.95;;
54360;SDS011;40258;53.936;27.540;2022-10-31T15:03:25;11.13;;;5.43;;
54360;SDS011;40258;53.936;27.540;2022-10-31T15:06:00;12.32;;;4.35;;
54360;SDS011;40258;53.936;27.540;2022-10-31T15:08:38;11.77;;;4.80;;
54360;SDS011;40258;53.936;27.540;2022-10-31T15:11:11;9.20;;;3.75;;
54360;SDS011;40258;53.936;27.540;2022-10-31T15:13:44;9.20;;;3.63;;
54360;SDS011;40258;53.936;27.540;2022-10-31T15:16:17;12.85;;;4.00;;
54360;SDS011;40258;53.936;27.540;2022-10-31T15:18:50;11.18;;;4.15;;
54360;SDS011;40258;53.936;27.540;2022-10-31T15:21:22;12.27;;;3.67;;
54360;SDS011;40258;53.936;27.540;2022-10-31T15:23:54;9.77;;;3.03;;
54360;SDS011;40258;53.936;27.540;2022-10-31T15:26:38;9.20;;;4.47;;
54360;SDS011;40258;53.936;27.540;2022-10-31T15:29:11;13.00;;;6.00;;
54360;SDS011;40258;53.936;27.540;2022-10-31T15:31:50;14.98;;;5.47;;
54360;SDS011;40258;53.936;27.540;2022-10-31T15:34:22;13.00;;;5.78;;
54360;SDS011;40258;53.936;27.540;2022-10-31T15:36:57;10.53;;;5.27;;
54360;SDS011;40258;53.936;27.540;2022-10-31T15:39:25;9.95;;;4.50;;
54360;SDS011;40258;53.936;27.540;2022-10-31T15:41:54;14.18;;;4.63;;
54360;SDS011;40258;53.936;27.540;2022-10-31T15:44:25;11.93;;;4.32;;
54360;SDS011;40258;53.936;27.540;2022-10-31T15:47:00;9.50;;;4.28;;
54360;SDS011;40258;53.936;27.540;2022-10-31T15:51:47;10.68;;;5.07;;
54360;SDS011;40258;53.936;27.540;2022-10-31T15:54:15;17.23;;;6.20;;
54360;SDS011;40258;53.936;27.540;2022-10-31T15:56:44;11.85;;;6.22;;
54360;SDS011;40258;53.936;27.540;2022-10-31T15:59:14;14.80;;;6.07;;
54360;SDS011;40258;53.936;27.540;2022-10-31T16:01:55;15.52;;;7.35;;
54360;SDS011;40258;53.936;27.540;2022-10-31T16:04:26;16.75;;;9.40;;
54360;SDS011;40258;53.936;27.540;2022-10-31T16:06:59;14.52;;;7.18;;